Home > Products > Valid Products > TAF

000
FTUS45 KCYS 010500
TAFCYS
TAF
KCYS 010540Z 0106/0206 25008KT P6SM OVC090
     FM011000 30010KT P6SM BKN150
     FM011800 35012KT 6SM -SHRA VCTS BKN035 BKN050 OVC100CB
     FM020200 34008KT P6SM VCSH BKN025 OVC080=



000
FTUS45 KCYS 010500
TAFLAR
TAF
KLAR 010540Z 0106/0206 23010KT P6SM BKN100 BKN150
     FM011800 32012KT 5SM -SHRA VCTS BKN040 OVC080CB
     FM012300 34008KT P6SM VCSH BKN035 OVC070
     FM020200 35007KT P6SM BKN025=



000
FTUS45 KCYS 010500
TAFRWL
TAF
KRWL 010540Z 0106/0206 26012KT P6SM BKN050
     FM011800 26013G20KT P6SM VCTS SCT035 OVC050CB
     FM020100 31010KT P6SM SCT030 BKN050=



000
FTUS45 KCYS 010200 AAA
TAFCYS
TAF AMD
KCYS 010242Z 0103/0124 26015KT P6SM OVC100
     FM010600 30010KT P6SM BKN120
     FM011800 33012KT P6SM BKN100 BKN200=



000
FTUS45 KCYS 010200 AAA
TAFCYS
TAF AMD
KCYS 010242Z 0103/0124 26015KT P6SM OVC100
     FM010600 30010KT P6SM BKN120
     FM011800 33012KT P6SM BKN100 BKN200=



000
FTUS45 KCYS 302300 RRA
TAFLAR
TAF
KLAR 302341Z 0100/0124 26018KT P6SM VCSH SCT050 BKN100
     FM010300 26010KT P6SM BKN100 BKN150
     FM011800 32012KT 6SM -SHRA BKN040 OVC080=



000
FTUS45 KCYS 302300 RRA
TAFCYS
TAF
KCYS 302341Z 0100/0124 27015KT P6SM BKN120 BKN200
     FM010300 30010KT P6SM BKN150
     FM011800 33012KT P6SM BKN100 BKN200=



000
FTUS45 KCYS 302300 RRA
TAFRWL
TAF
KRWL 302341Z 0100/0124 25018G26KT P6SM -SHRA BKN035 OVC060
     FM010200 25015G25KT P6SM OVC100
     FM010800 26012KT P6SM BKN100
     FM011800 30012G18KT 6SM -SHRA BKN030 OVC050=



000
FTUS45 KCYS 302300 RRA
TAFCYS
TAF
KCYS 302341Z 0100/0124 27015KT P6SM BKN120 BKN200
     FM010300 30010KT P6SM BKN150
     FM011800 33012KT P6SM BKN100 BKN200=



000
FTUS45 KCYS 302300 RRA
TAFLAR
TAF
KLAR 302341Z 0100/0124 26018KT P6SM VCSH SCT050 BKN100
     FM010300 26010KT P6SM BKN100 BKN150
     FM011800 32012KT 6SM -SHRA BKN040 OVC080=



000
FTUS45 KCYS 302300 RRA
TAFRWL
TAF
KRWL 302341Z 0100/0124 25018G26KT P6SM -SHRA BKN035 OVC060
     FM010200 25015G25KT P6SM OVC100
     FM010800 26012KT P6SM BKN100
     FM011800 30012G18KT 6SM -SHRA BKN030 OVC050=



000
FTUS45 KCYS 302100 AAB
TAFRWL
TAF AMD
KRWL 302154Z 3022/0118 25025G35KT P6SM VCSH SCT035 BKN050
     FM010200 25015G25KT P6SM BKN120=



000
FTUS45 KCYS 302100 AAB
TAFRWL
TAF AMD
KRWL 302154Z 3022/0118 25025G35KT P6SM VCSH SCT035 BKN050
     FM010200 25015G25KT P6SM BKN120=



000
FTUS45 KCYS 301800 AAA
TAFRWL
TAF AMD
KRWL 301837Z 3019/0118 25025G35KT P6SM VCSH SCT015 BKN025
     FM010200 25015G25KT P6SM BKN120=



000
FTUS45 KCYS 301800 AAA
TAFRWL
TAF AMD
KRWL 301837Z 3019/0118 25025G35KT P6SM VCSH SCT015 BKN025
     FM010200 25015G25KT P6SM BKN120=



000
FTUS45 KCYS 301700 RRA
TAFRWL
TAF
KRWL 301742Z 3018/0118 24025G35KT P6SM SCT020 BKN080
     FM301900 25025G35KT P6SM VCSH SCT025 BKN040
     FM010200 25015G25KT P6SM BKN120=



000
FTUS45 KCYS 301700 RRA
TAFCYS
TAF
KCYS 301742Z 3018/0118 26022G32KT P6SM SCT100
     FM302200 27016G26KT P6SM VCSH SCT060 BKN090
     FM010300 29008KT P6SM BKN150
     FM010900 30010KT P6SM SCT250=



000
FTUS45 KCYS 301700 RRA
TAFLAR
TAF
KLAR 301742Z 3018/0118 26020G32KT P6SM OVC080
     FM302200 26018G28KT P6SM VCSH SCT030 BKN050
     FM010300 25009KT P6SM SCT250=



000
FTUS45 KCYS 301700 RRA
TAFLAR
TAF
KLAR 301742Z 3018/0118 26020G32KT P6SM OVC080
     FM302200 26018G28KT P6SM VCSH SCT030 BKN050
     FM010300 25009KT P6SM SCT250=



000
FTUS45 KCYS 301700 RRA
TAFRWL
TAF
KRWL 301742Z 3018/0118 24025G35KT P6SM SCT020 BKN080
     FM301900 25025G35KT P6SM VCSH SCT025 BKN040
     FM010200 25015G25KT P6SM BKN120=



000
FTUS45 KCYS 301100
TAFCYS
TAF
KCYS 301129Z 3012/0112 26020KT P6SM SCT050 OVC100
     FM301500 27025G33KT P6SM BKN100
     FM302100 28015G25KT P6SM SCT060 BKN250
     FM010200 28008KT P6SM BKN150=



000
FTUS45 KCYS 301100
TAFRWL
TAF
KRWL 301129Z 3012/0112 25025G35KT P6SM SCT100 BKN250
     FM301900 25020G30KT P6SM VCSH BKN060
     FM010300 25015KT P6SM BKN100=



000
FTUS45 KCYS 301100
TAFLAR
TAF
KLAR 301129Z 3012/0112 27020G32KT P6SM SCT050
     FM302200 26018G28KT P6SM BKN050 BKN250
     FM010300 25010KT P6SM SCT250=



000
FTUS45 KCYS 301100
TAFRWL
TAF
KRWL 301129Z 3012/0112 25025G35KT P6SM SCT100 BKN250
     FM301900 25020G30KT P6SM VCSH BKN060
     FM010300 25015KT P6SM BKN100=



000
FTUS45 KCYS 301100
TAFCYS
TAF
KCYS 301129Z 3012/0112 26020KT P6SM SCT050 OVC100
     FM301500 27025G33KT P6SM BKN100
     FM302100 28015G25KT P6SM SCT060 BKN250
     FM010200 28008KT P6SM BKN150=



000
FTUS45 KCYS 301100
TAFLAR
TAF
KLAR 301129Z 3012/0112 27020G32KT P6SM SCT050
     FM302200 26018G28KT P6SM BKN050 BKN250
     FM010300 25010KT P6SM SCT250=



000
FTUS45 KCYS 300700 AAA
TAFCYS
TAF AMD
KCYS 300731Z 3008/0106 28015G25KT P6SM BKN050 OVC100
     FM302200 28015G25KT P6SM SCT100 BKN250=



000
FTUS45 KCYS 300700 AAA
TAFCYS
TAF AMD
KCYS 300731Z 3008/0106 28015G25KT P6SM BKN050 OVC100
     FM302200 28015G25KT P6SM SCT100 BKN250=



000
FTUS45 KCYS 300500
TAFRWL
TAF
KRWL 300520Z 3006/0106 25020G28KT P6SM SCT050 BKN080
     FM300900 25027G37KT P6SM SCT100 BKN250
     FM302200 26017G27KT P6SM BKN100=



000
FTUS45 KCYS 300500
TAFCYS
TAF
KCYS 300520Z 3006/0106 34020G28KT 6SM -RA BR BKN030 OVC050
      TEMPO 3006/3008 3SM RA BR OVC025
     FM300900 28025G35KT P6SM BKN050 OVC100
     FM302200 28015G25KT P6SM SCT100 BKN250=



000
FTUS45 KCYS 300500
TAFLAR
TAF
KLAR 300520Z 3006/0106 28015G25KT P6SM -RA BKN050 OVC100
     FM300900 27025G37KT P6SM BKN100
     FM302200 26018G28KT P6SM SCT100 BKN250=



000
FTUS45 KCYS 300500
TAFRWL
TAF
KRWL 300520Z 3006/0106 25020G28KT P6SM SCT050 BKN080
     FM300900 25027G37KT P6SM SCT100 BKN250
     FM302200 26017G27KT P6SM BKN100=



000
FTUS45 KCYS 300500
TAFCYS
TAF
KCYS 300520Z 3006/0106 34020G28KT 6SM -RA BR BKN030 OVC050
      TEMPO 3006/3008 3SM RA BR OVC025
     FM300900 28025G35KT P6SM BKN050 OVC100
     FM302200 28015G25KT P6SM SCT100 BKN250=



000
FTUS45 KCYS 300500
TAFLAR
TAF
KLAR 300520Z 3006/0106 28015G25KT P6SM -RA BKN050 OVC100
     FM300900 27025G37KT P6SM BKN100
     FM302200 26018G28KT P6SM SCT100 BKN250=



000
FTUS45 KCYS 300000 CCA
TAFLAR
TAF COR
KLAR 300024Z 3000/3024 34010KT 4SM -RA BR BKN015 OVC025
     FM300200 30018G29KT P6SM -SHRA BKN050
     FM300900 27027G37KT P6SM BKN100=



000
FTUS45 KCYS 300000 CCA
TAFLAR
TAF COR
KLAR 300024Z 3000/3024 34010KT 4SM -RA BR BKN015 OVC025
     FM300200 30018G29KT P6SM -SHRA BKN050
     FM300900 27027G37KT P6SM BKN100=



000
FTUS45 KCYS 300000 CCA
TAFCYS
TAF COR
KCYS 300022Z 3000/3024 33010KT 5SM -RA BR VCTS BKN040CB
      TEMPO 3000/3002 2SM RA BKN009 OVC030
     FM300200 31015G25KT 5SM -RA BR OVC050
     FM300400 30020G28KT P6SM -SHRA BKN070
     FM300900 27029G37KT P6SM BKN100=



000
FTUS45 KCYS 300000 CCA
TAFCYS
TAF COR
KCYS 300022Z 3000/3024 33010KT 5SM -RA BR VCTS BKN040CB
      TEMPO 3000/3002 2SM RA BKN009 OVC030
     FM300200 31015G25KT 5SM -RA BR OVC050
     FM300400 30020G28KT P6SM -SHRA BKN070
     FM300900 27029G37KT P6SM BKN100=



000
FTUS45 KCYS 292300 RRA
TAFCYS
TAF
KCYS 292343Z 3000/3024 33010KT 3SM TSRA SCT020 BKN040CB
      TEMPO 3000/3002 1 1/2SM +TSRA BKN009 OVC030CB
     FM300200 31015G25KT 5SM -RA BR OVC050
     FM300400 30020G28KT P6SM -SHRA BKN070
     FM300900 27029G37KT P6SM BKN100=



000
FTUS45 KCYS 292300 RRA
TAFCYS
TAF
KCYS 292343Z 3000/3024 33010KT 3SM TSRA SCT020 BKN040CB
      TEMPO 3000/3002 1 1/2SM +TSRA BKN009 OVC030CB
     FM300200 31015G25KT 5SM -RA BR OVC050
     FM300400 30020G28KT P6SM -SHRA BKN070
     FM300900 27029G37KT P6SM BKN100=



000
FTUS45 KCYS 292300 RRA
TAFLAR
TAF
KLAR 292343Z 3000/3024 34010KT 3SM RA BR BKN015 OVC025
      TEMPO 3000/3001 2SM +RA BR OVC015
     FM300200 30018G29KT P6SM -SHRA BKN050
     FM300900 27027G37KT P6SM BKN100=



000
FTUS45 KCYS 292300 RRA
TAFRWL
TAF
KRWL 292343Z 3000/3024 24010KT P6SM BKN100
     FM300300 24017G25KT P6SM SCT100
     FM300900 24027G36KT P6SM SCT150=



000
FTUS45 KCYS 292300 RRA
TAFRWL
TAF
KRWL 292343Z 3000/3024 24010KT P6SM BKN100
     FM300300 24017G25KT P6SM SCT100
     FM300900 24027G36KT P6SM SCT150=



000
FTUS45 KCYS 292300 RRA
TAFLAR
TAF
KLAR 292343Z 3000/3024 34010KT 3SM RA BR BKN015 OVC025
      TEMPO 3000/3001 2SM +RA BR OVC015
     FM300200 30018G29KT P6SM -SHRA BKN050
     FM300900 27027G37KT P6SM BKN100=



000
FTUS45 KCYS 292200 AAA
TAFLAR
TAF AMD
KLAR 292248Z 2923/3018 34010KT 4SM -RA VCTS BKN015 OVC025CB
      TEMPO 2923/3001 2SM +RA BR OVC015
     FM300200 30018G29KT P6SM VCSH BKN060 BKN100
     FM300900 27026G34KT P6SM SCT100=



000
FTUS45 KCYS 292200 AAA
TAFLAR
TAF AMD
KLAR 292248Z 2923/3018 34010KT 4SM -RA VCTS BKN015 OVC025CB
      TEMPO 2923/3001 2SM +RA BR OVC015
     FM300200 30018G29KT P6SM VCSH BKN060 BKN100
     FM300900 27026G34KT P6SM SCT100=



000
FTUS45 KCYS 291700 RRA
TAFRWL
TAF
KRWL 291743Z 2918/3018 23010KT P6SM SCT080
     FM292000 22012G19KT P6SM VCSH SCT040 BKN100
     FM300300 24028G36KT P6SM SCT100=



000
FTUS45 KCYS 291700 RRA
TAFCYS
TAF
KCYS 291743Z 2918/3018 05005KT P6SM SCT050 BKN100
     FM292000 12012KT 6SM -SHRA VCTS SCT040CB BKN060
     FM292200 09010KT 3SM TSRA BR SCT020 BKN040CB
      TEMPO 2922/3002 1SM +TSRA BKN009 OVC030CB
     FM300200 31015G25KT 5SM -RA BR OVC060
     FM300400 30020G28KT P6SM -SHRA SCT060 OVC090
     FM300900 27025G35KT P6SM SCT100=



000
FTUS45 KCYS 291700 RRA
TAFLAR
TAF
KLAR 291743Z 2918/3018 07005KT P6SM SCT050
     FM291930 04010KT 6SM -SHRA VCTS SCT040CB BKN060
     FM292100 34010KT 4SM -TSRA BKN015 OVC025CB
     FM300200 30018G29KT P6SM VCSH BKN060 BKN100
     FM300900 27026G34KT P6SM SCT100=



000
FTUS45 KCYS 291700 RRA
TAFCYS
TAF
KCYS 291743Z 2918/3018 05005KT P6SM SCT050 BKN100
     FM292000 12012KT 6SM -SHRA VCTS SCT040CB BKN060
     FM292200 09010KT 3SM TSRA BR SCT020 BKN040CB
      TEMPO 2922/3002 1SM +TSRA BKN009 OVC030CB
     FM300200 31015G25KT 5SM -RA BR OVC060
     FM300400 30020G28KT P6SM -SHRA SCT060 OVC090
     FM300900 27025G35KT P6SM SCT100=



000
FTUS45 KCYS 291700 RRA
TAFRWL
TAF
KRWL 291743Z 2918/3018 23010KT P6SM SCT080
     FM292000 22012G19KT P6SM VCSH SCT040 BKN100
     FM300300 24028G36KT P6SM SCT100=



000
FTUS45 KCYS 291700 RRA
TAFLAR
TAF
KLAR 291743Z 2918/3018 07005KT P6SM SCT050
     FM291930 04010KT 6SM -SHRA VCTS SCT040CB BKN060
     FM292100 34010KT 4SM -TSRA BKN015 OVC025CB
     FM300200 30018G29KT P6SM VCSH BKN060 BKN100
     FM300900 27026G34KT P6SM SCT100=



000
FTUS45 KCYS 291100
TAFRWL
TAF
KRWL 291126Z 2912/3012 VRB05KT P6SM SCT080
     FM292000 22014G24KT P6SM VCTS SCT040 OVC100CB
     FM300100 24021G29KT P6SM VCSH OVC100=



000
FTUS45 KCYS 291100
TAFLAR
TAF
KLAR 291126Z 2912/3012 07005KT P6SM SCT025 BKN040
     FM291900 12010KT P6SM VCTS SCT040CB BKN060
     FM300200 31018G29KT P6SM VCSH BKN060 BKN100=



000
FTUS45 KCYS 291100
TAFCYS
TAF
KCYS 291126Z 2912/3012 36005KT P6SM VCSH BKN015 OVC040
      TEMPO 2912/2914 5SM RA BKN030 OVC050
     FM292000 12012KT 6SM -SHRA VCTS SCT040CB BKN060
     FM292200 09010KT 3SM TSRA BR SCT020 BKN040CB
      TEMPO 2922/3002 1SM +TSRA BKN020 OVC030CB
     FM300200 35015G25KT 5SM RA BR OVC060
     FM300400 32020G35KT P6SM -SHRA SCT060 OVC090=



000
FTUS45 KCYS 291100
TAFLAR
TAF
KLAR 291126Z 2912/3012 07005KT P6SM SCT025 BKN040
     FM291900 12010KT P6SM VCTS SCT040CB BKN060
     FM300200 31018G29KT P6SM VCSH BKN060 BKN100=



000
FTUS45 KCYS 291100
TAFRWL
TAF
KRWL 291126Z 2912/3012 VRB05KT P6SM SCT080
     FM292000 22014G24KT P6SM VCTS SCT040 OVC100CB
     FM300100 24021G29KT P6SM VCSH OVC100=



000
FTUS45 KCYS 291100
TAFCYS
TAF
KCYS 291126Z 2912/3012 36005KT P6SM VCSH BKN015 OVC040
      TEMPO 2912/2914 5SM RA BKN030 OVC050
     FM292000 12012KT 6SM -SHRA VCTS SCT040CB BKN060
     FM292200 09010KT 3SM TSRA BR SCT020 BKN040CB
      TEMPO 2922/3002 1SM +TSRA BKN020 OVC030CB
     FM300200 35015G25KT 5SM RA BR OVC060
     FM300400 32020G35KT P6SM -SHRA SCT060 OVC090=



000
FTUS45 KCYS 290800 AAA
TAFLAR
TAF AMD
KLAR 290848Z 2909/3006 09007KT P6SM VCSH OVC007
     FM291000 12006KT 4SM BR OVC004
     FM291300 23005KT P6SM SCT025 BKN040
     FM292000 19010KT 4SM -SHRA VCTS SCT040CB BKN060
     FM300200 31018G29KT P6SM BKN100=



000
FTUS45 KCYS 290800 AAA
TAFLAR
TAF AMD
KLAR 290848Z 2909/3006 09007KT P6SM VCSH OVC007
     FM291000 12006KT 4SM BR OVC004
     FM291300 23005KT P6SM SCT025 BKN040
     FM292000 19010KT 4SM -SHRA VCTS SCT040CB BKN060
     FM300200 31018G29KT P6SM BKN100=



000
FTUS45 KCYS 290800 AAA
TAFRWL
TAF AMD
KRWL 290848Z 2909/3006 21006KT P6SM VCSH OVC020
     FM291800 22014G24KT P6SM VCTS SCT040 OVC100CB
     FM300100 24021G29KT P6SM OVC100=



000
FTUS45 KCYS 290800 AAA
TAFRWL
TAF AMD
KRWL 290848Z 2909/3006 21006KT P6SM VCSH OVC020
     FM291800 22014G24KT P6SM VCTS SCT040 OVC100CB
     FM300100 24021G29KT P6SM OVC100=



000
FTUS45 KCYS 290600 CCA
TAFLAR
TAF COR
KLAR 290600Z 2906/3006 09007KT P6SM VCSH OVC007
      TEMPO 2907/2909 17008KT 3SM TSRA BKN008 OVC015CB
     FM290900 12006KT 4SM BR OVC004
     FM291300 23005KT P6SM SCT025 BKN040
     FM292000 19010KT 4SM -SHRA VCTS SCT040CB BKN060
     FM300200 31018G29KT P6SM BKN100=



000
FTUS45 KCYS 290500
TAFCYS
TAF
KCYS 290540Z 2906/3006 02011KT 2SM BR OVC003
      TEMPO 2906/2909 1/2SM FG OVC002
     FM291400 36005KT P6SM VCSH BKN015 OVC040
     FM292100 12012KT 4SM -SHRA VCTS SCT040CB BKN060
     FM300100 31014KT P6SM BKN100=



000
FTUS45 KCYS 290500
TAFLAR
TAF
KLAR 290540Z 2906/3006 09007KT P6SM VCSH OVC007
     FM290900 12006KT 4SM BR OVC004
     FM291300 23005KT P6SM SCT025 BKN040
     FM292000 19010KT 4SM -SHRA VCTS SCT040CB BKN060
     FM300200 31018G29KT P6SM BKN100=



000
FTUS45 KCYS 290500
TAFRWL
TAF
KRWL 290540Z 2906/3006 07007KT P6SM -SHRA VCTS BKN007 OVC050CB
      TEMPO 2906/2908 2SM -TSRA BKN006 OVC035CB
     FM290900 21006KT P6SM VCSH OVC020
     FM291800 22014G24KT P6SM VCTS SCT040 OVC100CB
     FM300100 24021G29KT P6SM OVC100=



000
FTUS45 KCYS 290200 AAA
TAFLAR
TAF AMD
KLAR 290238Z 2903/2924 36010KT P6SM VCSH BKN005 BKN012
     FM290900 10006KT 4SM BR OVC004
     FM291300 23005KT P6SM SCT025 BKN040
     FM292000 19010KT P6SM VCTS SCT040CB BKN060=



000
FTUS45 KCYS 290200 AAA
TAFLAR
TAF AMD
KLAR 290238Z 2903/2924 36010KT P6SM VCSH BKN005 BKN012
     FM290900 10006KT 4SM BR OVC004
     FM291300 23005KT P6SM SCT025 BKN040
     FM292000 19010KT P6SM VCTS SCT040CB BKN060=



000
FTUS45 KCYS 290200 AAA
TAFCYS
TAF AMD
KCYS 290233Z 2903/2924 01010KT P6SM VCSH SCT050 OVC100
     FM290500 07006KT 2SM BR OVC006
     FM291400 36005KT P6SM SCT025 BKN040
     FM292000 12012KT P6SM VCTS SCT040CB BKN060=



000
FTUS45 KCYS 290200 AAA
TAFCYS
TAF AMD
KCYS 290233Z 2903/2924 01010KT P6SM VCSH SCT050 OVC100
     FM290500 07006KT 2SM BR OVC006
     FM291400 36005KT P6SM SCT025 BKN040
     FM292000 12012KT P6SM VCTS SCT040CB BKN060=



000
FTUS45 KCYS 282300 CCA
TAFCYS
TAF COR
KCYS 282350Z 2900/2924 04013KT P6SM -SHRA VCTS SCT012 BKN022CB
      TEMPO 2901/2903 VRB15G24KT 1/2SM +TSRA SCT005 BKN012 OVC022CB
     FM290500 07006KT 2SM BR OVC006
     FM291400 36005KT P6SM SCT025 BKN040
     FM292000 12012KT P6SM VCTS SCT040CB BKN060=



000
FTUS45 KCYS 282300 CCA
TAFCYS
TAF COR
KCYS 282350Z 2900/2924 04013KT P6SM -SHRA VCTS SCT012 BKN022CB
      TEMPO 2901/2903 VRB15G24KT 1/2SM +TSRA SCT005 BKN012 OVC022CB
     FM290500 07006KT 2SM BR OVC006
     FM291400 36005KT P6SM SCT025 BKN040
     FM292000 12012KT P6SM VCTS SCT040CB BKN060=



000
FTUS45 KCYS 282300 RRA
TAFCYS
TAF
KCYS 282341Z 2900/2924 08007KT P6SM -SHRA VCTS SCT012 BKN022CB
      TEMPO 2901/2903 4SM SHRA BKN012
     FM290500 07006KT 2SM BR OVC006
     FM291400 36005KT P6SM SCT025 BKN040
     FM292000 12012KT P6SM VCTS SCT040CB BKN060=



000
FTUS45 KCYS 282300 RRA
TAFCYS
TAF
KCYS 282341Z 2900/2924 08007KT P6SM -SHRA VCTS SCT012 BKN022CB
      TEMPO 2901/2903 4SM SHRA BKN012
     FM290500 07006KT 2SM BR OVC006
     FM291400 36005KT P6SM SCT025 BKN040
     FM292000 12012KT P6SM VCTS SCT040CB BKN060=



000
FTUS45 KCYS 282300 RRA
TAFRWL
TAF
KRWL 282341Z 2900/2924 03006KT P6SM VCSH SCT020 BKN050
     FM290400 VRB04KT 4SM -SHRA BR SCT012 OVC020
     FM290700 21006KT P6SM VCSH OVC020
     FM291800 22014G24KT P6SM SCT040=



000
FTUS45 KCYS 282300 RRA
TAFLAR
TAF
KLAR 282341Z 2900/2924 13009KT 4SM -SHRA VCTS SCT014 BKN025CB
     FM290100 VRB05KT P6SM -SHRA BKN012
     FM290900 10006KT 4SM BR OVC025
     FM291300 23005KT P6SM SCT025 BKN040
     FM292000 19010KT P6SM VCTS SCT040CB BKN060=



000
FTUS45 KCYS 282300 RRA
TAFLAR
TAF
KLAR 282341Z 2900/2924 13009KT 4SM -SHRA VCTS SCT014 BKN025CB
     FM290100 VRB05KT P6SM -SHRA BKN012
     FM290900 10006KT 4SM BR OVC025
     FM291300 23005KT P6SM SCT025 BKN040
     FM292000 19010KT P6SM VCTS SCT040CB BKN060=



000
FTUS45 KCYS 281700 CCA
TAFCYS
TAF COR
KCYS 281749Z 2818/2918 02012KT P6SM FEW015
      TEMPO 2818/2821 BKN015
     FM282100 14011G20KT P6SM -SHRA VCTS SCT015 BKN025CB
     FM290100 06007KT 4SM -SHRA VCTS SCT012 BKN020CB
     FM290400 07006KT 5SM BR OVC006
     FM291400 36005KT P6SM SCT040 BKN060=



000
FTUS45 KCYS 281700 CCA
TAFCYS
TAF COR
KCYS 281749Z 2818/2918 02012KT P6SM FEW015
      TEMPO 2818/2821 BKN015
     FM282100 14011G20KT P6SM -SHRA VCTS SCT015 BKN025CB
     FM290100 06007KT 4SM -SHRA VCTS SCT012 BKN020CB
     FM290400 07006KT 5SM BR OVC006
     FM291400 36005KT P6SM SCT040 BKN060=



000
FTUS45 KCYS 281700
TAFCYS
TAF
KCYS 281738Z 2818/2918 02012KT P6SM FEW015
     FM282100 14011G20KT P6SM -SHRA VCTS SCT015 BKN025CB
     FM290100 06007KT 4SM -SHRA VCTS SCT012 BKN020CB
     FM290400 07006KT 5SM BR OVC006
     FM291400 36005KT P6SM SCT040 BKN060=



000
FTUS45 KCYS 281700
TAFLAR
TAF
KLAR 281738Z 2818/2918 11015G25KT P6SM OVC014
     FM282100 13009KT 4SM -SHRA VCTS SCT014 BKN025CB
     FM290100 VRB05KT P6SM -SHRA BKN012
     FM290900 10006KT 6SM BR OVC025
     FM291300 23005KT P6SM SCT040 BKN060=



000
FTUS45 KCYS 281700
TAFLAR
TAF
KLAR 281738Z 2818/2918 11015G25KT P6SM OVC014
     FM282100 13009KT 4SM -SHRA VCTS SCT014 BKN025CB
     FM290100 VRB05KT P6SM -SHRA BKN012
     FM290900 10006KT 6SM BR OVC025
     FM291300 23005KT P6SM SCT040 BKN060=



000
FTUS45 KCYS 281700
TAFRWL
TAF
KRWL 281738Z 2818/2918 07018G28KT P6SM VCSH OVC015
     FM281900 06011KT 4SM -SHRA VCTS SCT025 BKN040CB
     FM290000 03006KT P6SM VCSH SCT020 BKN050
     FM290400 VRB04KT 4SM -SHRA BR SCT012 OVC020
     FM290800 21006KT P6SM VCSH OVC020
     FM291500 22014G24KT P6SM SCT040=



000
FTUS45 KCYS 281700
TAFRWL
TAF
KRWL 281738Z 2818/2918 07018G28KT P6SM VCSH OVC015
     FM281900 06011KT 4SM -SHRA VCTS SCT025 BKN040CB
     FM290000 03006KT P6SM VCSH SCT020 BKN050
     FM290400 VRB04KT 4SM -SHRA BR SCT012 OVC020
     FM290800 21006KT P6SM VCSH OVC020
     FM291500 22014G24KT P6SM SCT040=



000
FTUS45 KCYS 281700
TAFCYS
TAF
KCYS 281738Z 2818/2918 02012KT P6SM FEW015
     FM282100 14011G20KT P6SM -SHRA VCTS SCT015 BKN025CB
     FM290100 06007KT 4SM -SHRA VCTS SCT012 BKN020CB
     FM290400 07006KT 5SM BR OVC006
     FM291400 36005KT P6SM SCT040 BKN060=



000
FTUS45 KCYS 281600 AAA
TAFCYS
TAF AMD
KCYS 281607Z 2816/2912 02012KT P6SM SCT011 BKN060
      TEMPO 2816/2818 BKN011
     FM281800 11009KT P6SM SCT050 BKN080
     FM282100 14011G20KT P6SM -SHRA VCTS SCT060CB BKN090
     FM290300 01007KT P6SM SCT006 BKN100
     FM290500 07006KT 5SM BR OVC006=



000
FTUS45 KCYS 281600 AAA
TAFLAR
TAF AMD
KLAR 281607Z 2816/2912 08007KT P6SM SCT015 BKN025
     FM281800 11015G25KT P6SM OVC100
     FM282000 13009KT P6SM -SHRA VCTS SCT050CB BKN080
     FM290100 VRB05KT P6SM -SHRA BKN012 BKN030
     FM290900 10006KT 6SM BR OVC025=



000
FTUS45 KCYS 281600 AAA
TAFCYS
TAF AMD
KCYS 281607Z 2816/2912 02012KT P6SM SCT011 BKN060
      TEMPO 2816/2818 BKN011
     FM281800 11009KT P6SM SCT050 BKN080
     FM282100 14011G20KT P6SM -SHRA VCTS SCT060CB BKN090
     FM290300 01007KT P6SM SCT006 BKN100
     FM290500 07006KT 5SM BR OVC006=



000
FTUS45 KCYS 281500 AAA
TAFRWL
TAF AMD
KRWL 281536Z 2816/2912 07018G28KT P6SM OVC015
     FM281900 06011KT P6SM -SHRA VCTS SCT030 BKN050CB
     FM290000 03006KT 5SM SHRA BR SCT020 BKN050
     FM290600 VRB04KT 4SM BR OVC020=



000
FTUS45 KCYS 281500 AAA
TAFRWL
TAF AMD
KRWL 281536Z 2816/2912 07018G28KT P6SM OVC015
     FM281900 06011KT P6SM -SHRA VCTS SCT030 BKN050CB
     FM290000 03006KT 5SM SHRA BR SCT020 BKN050
     FM290600 VRB04KT 4SM BR OVC020=



000
FTUS45 KCYS 281300 AAA
TAFCYS
TAF AMD
KCYS 281331Z 2814/2912 35014G24KT P6SM SCT005
      TEMPO 2814/2816 4SM BR BKN005
     FM281600 11009KT P6SM SCT050 BKN080
     FM282100 14011G20KT P6SM -SHRA VCTS SCT060CB BKN090
     FM290300 01007KT P6SM SCT006 BKN100
     FM290500 07006KT 5SM BR OVC006=



000
FTUS45 KCYS 281300 AAA
TAFCYS
TAF AMD
KCYS 281331Z 2814/2912 35014G24KT P6SM SCT005
      TEMPO 2814/2816 4SM BR BKN005
     FM281600 11009KT P6SM SCT050 BKN080
     FM282100 14011G20KT P6SM -SHRA VCTS SCT060CB BKN090
     FM290300 01007KT P6SM SCT006 BKN100
     FM290500 07006KT 5SM BR OVC006=



000
FTUS45 KCYS 281200 CCA
TAFCYS
TAF COR
KCYS 281252Z 2812/2912 01012G18KT P6SM SCT250
     FM281500 11009KT P6SM SCT050 BKN080
     FM282100 14011G20KT P6SM -SHRA VCTS SCT060CB BKN090
     FM290300 01007KT P6SM SCT006 BKN100
     FM290500 07006KT 5SM BR OVC006=



000
FTUS45 KCYS 281200 CCA
TAFCYS
TAF COR
KCYS 281252Z 2812/2912 01012G18KT P6SM SCT250
     FM281500 11009KT P6SM SCT050 BKN080
     FM282100 14011G20KT P6SM -SHRA VCTS SCT060CB BKN090
     FM290300 01007KT P6SM SCT006 BKN100
     FM290500 07006KT 5SM BR OVC006=



000
FTUS45 KCYS 281100
TAFCYS
TAF
KCYS 281140Z 2812/2912 03008KT P6SM SCT250
     FM281500 11009KT P6SM SCT050 BKN080
     FM282100 14011G20KT P6SM -SHRA VCTS SCT060CB BKN090
     FM290300 01007KT P6SM SCT006 BKN100
     FM290500 07006KT 5SM BR OVC006=



000
FTUS45 KCYS 281100
TAFLAR
TAF
KLAR 281140Z 2812/2912 08007KT P6SM BKN150
     FM281700 11015G25KT P6SM OVC100
     FM282000 13009KT P6SM -SHRA VCTS SCT050CB BKN080
     FM290100 VRB05KT P6SM -SHRA BKN012 BKN030
     FM290900 10006KT 6SM BR OVC025=



000
FTUS45 KCYS 281100
TAFRWL
TAF
KRWL 281140Z 2812/2912 07012G18KT P6SM SCT020 BKN100
     FM281900 06011KT P6SM -SHRA VCTS SCT030 BKN050CB
     FM290000 03006KT 5SM SHRA BR SCT020 BKN050
     FM290600 VRB04KT 4SM BR OVC020=



000
FTUS45 KCYS 281100
TAFLAR
TAF
KLAR 281140Z 2812/2912 08007KT P6SM BKN150
     FM281700 11015G25KT P6SM OVC100
     FM282000 13009KT P6SM -SHRA VCTS SCT050CB BKN080
     FM290100 VRB05KT P6SM -SHRA BKN012 BKN030
     FM290900 10006KT 6SM BR OVC025=



000
FTUS45 KCYS 281100
TAFCYS
TAF
KCYS 281140Z 2812/2912 03008KT P6SM SCT250
     FM281500 11009KT P6SM SCT050 BKN080
     FM282100 14011G20KT P6SM -SHRA VCTS SCT060CB BKN090
     FM290300 01007KT P6SM SCT006 BKN100
     FM290500 07006KT 5SM BR OVC006=



000
FTUS45 KCYS 281100
TAFRWL
TAF
KRWL 281140Z 2812/2912 07012G18KT P6SM SCT020 BKN100
     FM281900 06011KT P6SM -SHRA VCTS SCT030 BKN050CB
     FM290000 03006KT 5SM SHRA BR SCT020 BKN050
     FM290600 VRB04KT 4SM BR OVC020=



    US Dept of Commerce
    National Oceanic and Atmospheric Administration
    National Weather Service
    1325 East West Highway
    Silver Spring, MD 20910
    Page Author: NWS Internet Services Team
Disclaimer
Information Quality
Credits
Glossary
Privacy Policy
Freedom of Information Act (FOIA)
About Us
Career Opportunities